Palmdale Regional/USAF Plant 42 Airport
KPMD : rendu visible

Aérodrome :











RETROUVEZ-NOUS SUR...

 
LOGIN :

S'inscrire | Disclaimer

   EN    FR    IT 

 









Légende :    VFR   VFR Marginal   IFR   IFR Intensif   IFR Très Intensif
Visi : 
Plafond : 
>= 8 km
>= 3000ft
5 à 8 km
1000 à 3000 ft
1500m à 5 km
500 à 1000 ft
800 à 1500m
200 à 500 ft
< 800m
< 200 ft
Symboles :   Orages  Brouillard  Fortes neiges  Fortes précipitations  Vent > 20 kt






- Altitude de l'aérodrome : 2543 ft
- Code IATA : PMD


KPMD - Palmdale Regional/USAF Plant 42

DERNIER METAR :
  • 240553Z 28009KT 10SM CLR 10/M01 A2998 RMK AO2 SLP140 T01001006 10150 20094 51008 $

METARs EXPIRÉS :
  • 240453Z 27015KT 10SM CLR 10/M01 A2997 RMK AO2 SLP141 T01001011 $
  • 240353Z 25007KT 10SM CLR 09/M01 A2997 RMK AO2 SLP140 T00941011 $

TAF KPMD
Valide du 24 à 06h jusqu'au 25 à 06h UTC


240534Z 2406/2506 27015KT P6SM SKC
FM240800 25008KT P6SM SKC
FM241000 VRB03KT P6SM SKC
FM242000 07008KT P6SM SKC
FM250400 17005KT P6SM SKC
FIR KZLA / Amérique du Nord



MET'MAP, la Météo Aéronautique d'un coup d'oeil ! - Copyright ORBIFLY Décembre 2007 - Disclaimer

ORBIFLY MET'MAP TEAM :

Programmation & Développement : Alexandra Zaïnal
Sur une idée originale de : Baudouin d'Aumeries
Assistance à la programmation : Marc-Olivier Méhu
Soutien technique & logistique : Manuel Goepfert

Contact : metmap@orbifly.com




SOURCES & CREDITS :

   NOAA       Earth
Advisory